IVAO ES Tour IFR-A 2013 Etapa 15

IVAO ES Tour IFR-A 2013 Etapa 15

Vigo ( LEVX ) – Reus ( LERS )

Datos generales del vuelo
 Fecha 06-12-2013  Avión  B737-800 winglets
 Ruta LOMDA G255 BISMU UN725 LOBAR UN860 SEROX  Nivel de vuelo FL350
 Origen LEVX  Destino LERS
 Velocidad M0.770  Distancia 528Nm
 Distancia real 443Nm ETE 01:20
 ETA 09:30Z  FOB 02:35
 Hora salida 08:10Z Hora llegada 09:35Z
 Pax 156 TOW 68602Kg
 MTOW  78471Kg Fuel 7832Kg
 Fuel utilizado 4154Kg ZFW 60769Kg
Peso carga 8772Kg Peso pasaje 10584Kg
V1 132Knots Vr 142Knots
 V2 151Knots  Vref 148Knots
 Velocidad vertical toma
275,38 ft/m  

 

Datos LEVX

Metar: METAR LEVX 060800Z 22006KT 180V270 CAVOK 03/02 Q1027 NOSIG
Pista Activa:  20
Salida: LOMDA2E

Datos LERS

Metar: LERS 060930Z VRB02KT CAVOK 10/03 Q1026
Pista Activa: 07
Llegada:  SEROX1P
App:  VOR 07 transición DISET

 

 

Deja una respuesta